KCWF

Chennault International Airport

Lake Charles, Louisiana, USA
METAR KCWF 220455Z AUTO 15004KT 10SM CLR 25/24 A2993 RMK AO2 T02490240
Observed Flight Rules
Jun-22 @ 04:55 UTC (38 minutes ago) Visual Flight Rules
Wind Visibility Clouds
150° at 4 knots 10 miles
  • Clear skies
Temperatures Readings
Current 25°C / 77°F
Dewpoint 24°C / 75°F
Humidity 94%
Altimeter 29.93" Hg
Pressure 1014 hPa
Elevation 4
METAR KCWF 220455Z AUTO 15004KT 10SM CLR 25/24 A2993 RMK AO2 T02490240
Observed Flight Rules
Jun-22 @ 04:55 UTC
(38 minutes ago)
VFR
Wind Visibility
150° at 4 knots 10 miles
Clouds
  • Clear skies
Temperature Dewpoint
25°C / 77°F 24°C / 75°F
Humidity Altimeter Pressure
94% 29.93" Hg 1014 hPa